Dronryp, Netherlands
Current Conditions -  °F | °C
As of 7:55 PM on Thursday 30 Oct 2014 (Local Time) from EHLW Reporting Station
Haze Haze  
Wind Chill: 55°   Ceiling: 400
Heat Index: 55°   Visibility: 1.6mi
Dew Point: 55°   Wind: 9mph
Humidity: 100%   Direction: 170°S
Pressure: 30.12"   Gusts: NA
Location:  53.2°N, 5.65°E
Report Text: EHLW 301855Z AUTO 17008KT 2700 R23/3000 BR OVC004 13/13 Q1020 YLO
Loading
Personal Weather Stations






























Interactive Weather Map
Tropical Storm Tracking
New forecast layout! Learn more

10-Day Weather Forecast

Advertisements
Track Severe Weather on mobile